Time,TemperatureF,DewpointF,PressureIn,WindDirection,WindDirectionDegrees,WindSpeedMPH,WindSpeedGustMPH,Humidity,HourlyPrecipIn,Conditions,Clouds,dailyrainin,SoftwareType,DateUTC
2013-01-13 10:33:00,18.0,14.0,30.16,NW,310,10.0,-999.0,85,-99.99,,,-99.99,,2013-01-13 16:33:00,
2013-01-13 10:43:00,18.0,14.0,30.19,WNW,290,8.0,-999.0,85,-99.99,,,-99.99,,2013-01-13 16:43:00,
2013-01-13 10:53:00,18.0,14.0,30.17,WNW,300,10.0,-999.0,85,-99.99,,,-99.99,,2013-01-13 16:53:00,
2013-01-13 11:03:00,18.0,14.0,30.17,WNW,300,10.0,-999.0,85,-99.99,,,-99.99,,2013-01-13 17:03:00,
2013-01-13 11:12:00,18.0,14.0,30.17,WNW,300,10.0,-999.0,85,-99.99,,,-99.99,,2013-01-13 17:12:00,
2013-01-13 11:22:00,18.0,14.0,30.20,NW,310,10.0,-999.0,85,-99.99,,,-99.99,,2013-01-13 17:22:00,
2013-01-13 11:33:00,18.0,14.0,30.18,NW,320,9.0,-999.0,85,-99.99,,,-99.99,,2013-01-13 17:33:00,
2013-01-13 11:43:00,18.0,12.0,30.17,NW,320,10.0,-999.0,78,-99.99,,,-99.99,,2013-01-13 17:43:00,
2013-01-13 11:53:00,18.0,12.0,30.18,WNW,300,14.0,-999.0,78,-99.99,,,-99.99,,2013-01-13 17:53:00,
2013-01-13 12:03:00,18.0,12.0,30.18,WNW,300,14.0,-999.0,78,-99.99,,,-99.99,,2013-01-13 18:03:00,
2013-01-13 12:12:00,18.0,12.0,30.18,WNW,300,14.0,-999.0,78,-99.99,,,-99.99,,2013-01-13 18:12:00,
2013-01-13 12:22:00,16.0,10.0,30.15,WNW,300,10.0,-999.0,78,-99.99,,,-99.99,,2013-01-13 18:22:00,
2013-01-13 12:33:00,18.0,12.0,30.16,WNW,300,12.0,-999.0,78,-99.99,,,-99.99,,2013-01-13 18:33:00,
2013-01-13 12:43:00,18.0,12.0,30.15,WNW,300,10.0,-999.0,78,-99.99,,,-99.99,,2013-01-13 18:43:00,
2013-01-13 12:53:00,18.0,12.0,30.15,WNW,300,12.0,17.0,78,-99.99,,,-99.99,,2013-01-13 18:53:00,
2013-01-13 13:02:00,18.0,12.0,30.15,WNW,300,12.0,17.0,78,-99.99,,,-99.99,,2013-01-13 19:02:00,
2013-01-13 13:12:00,18.0,12.0,30.15,WNW,300,12.0,17.0,78,-99.99,,,-99.99,,2013-01-13 19:12:00,
2013-01-13 13:22:00,18.0,12.0,30.14,West,280,10.0,-999.0,78,-99.99,,,-99.99,,2013-01-13 19:22:00,
2013-01-13 13:33:00,19.0,14.0,30.14,WNW,300,9.0,-999.0,79,-99.99,,,-99.99,,2013-01-13 19:33:00,
2013-01-13 13:43:00,19.0,14.0,30.15,WNW,300,12.0,-999.0,79,-99.99,,,-99.99,,2013-01-13 19:43:00,
2013-01-13 13:53:00,19.0,14.0,30.15,West,280,10.0,-999.0,79,-99.99,,,-99.99,,2013-01-13 19:53:00,
2013-01-13 14:03:00,19.0,14.0,30.15,West,280,10.0,-999.0,79,-99.99,,,-99.99,,2013-01-13 20:03:00,
2013-01-13 14:12:00,19.0,14.0,30.15,West,280,10.0,-999.0,79,-99.99,,,-99.99,,2013-01-13 20:12:00,
2013-01-13 14:22:00,19.0,14.0,30.17,West,280,10.0,-999.0,79,-99.99,,,-99.99,,2013-01-13 20:22:00,
2013-01-13 14:33:00,19.0,14.0,30.17,WNW,300,12.0,-999.0,79,-99.99,,,-99.99,,2013-01-13 20:33:00,
2013-01-13 14:43:00,19.0,14.0,30.17,WNW,290,10.0,-999.0,79,-99.99,,,-99.99,,2013-01-13 20:43:00,
2013-01-13 14:53:00,19.0,14.0,30.18,WNW,290,12.0,-999.0,79,-99.99,,,-99.99,,2013-01-13 20:53:00,
2013-01-13 15:03:00,19.0,14.0,30.18,WNW,290,12.0,-999.0,79,-99.99,,,-99.99,,2013-01-13 21:03:00,
2013-01-13 15:12:00,19.0,14.0,30.18,WNW,290,12.0,-999.0,79,-99.99,,,-99.99,,2013-01-13 21:12:00,
2013-01-13 15:23:00,19.0,12.0,30.21,West,280,14.0,-999.0,73,-99.99,,,-99.99,,2013-01-13 21:23:00,
2013-01-13 15:33:00,19.0,12.0,30.21,West,280,12.0,16.0,73,-99.99,,,-99.99,,2013-01-13 21:33:00,
2013-01-13 15:43:00,19.0,12.0,30.21,West,270,14.0,-999.0,73,-99.99,,,-99.99,,2013-01-13 21:43:00,
2013-01-13 15:53:00,19.0,12.0,30.22,West,280,12.0,-999.0,73,-99.99,,,-99.99,,2013-01-13 21:53:00,
2013-01-13 16:02:00,19.0,12.0,30.22,West,280,12.0,-999.0,73,-99.99,,,-99.99,,2013-01-13 22:02:00,
2013-01-13 16:12:00,19.0,12.0,30.22,West,280,12.0,-999.0,73,-99.99,,,-99.99,,2013-01-13 22:12:00,
2013-01-13 16:22:00,19.0,12.0,30.23,WNW,290,12.0,-999.0,73,-99.99,,,-99.99,,2013-01-13 22:22:00,
2013-01-13 16:33:00,19.0,12.0,30.24,West,280,12.0,-999.0,73,-99.99,,,-99.99,,2013-01-13 22:33:00,
2013-01-13 16:43:00,19.0,12.0,30.24,WNW,290,13.0,-999.0,73,-99.99,,,-99.99,,2013-01-13 22:43:00,
2013-01-13 16:52:00,19.0,12.0,30.24,West,280,12.0,-999.0,73,-99.99,,,-99.99,,2013-01-13 22:52:00,
2013-01-13 17:02:00,19.0,12.0,30.24,West,280,12.0,-999.0,73,-99.99,,,-99.99,,2013-01-13 23:02:00,
2013-01-13 17:12:00,19.0,12.0,30.24,West,280,12.0,-999.0,73,-99.99,,,-99.99,,2013-01-13 23:12:00,
2013-01-13 17:22:00,19.0,12.0,30.24,WNW,290,8.0,-999.0,73,-99.99,,,-99.99,,2013-01-13 23:22:00,
2013-01-13 17:33:00,18.0,12.0,30.25,WNW,290,10.0,-999.0,78,-99.99,,,-99.99,,2013-01-13 23:33:00,
2013-01-13 17:43:00,18.0,12.0,30.25,WNW,290,9.0,-999.0,78,-99.99,,,-99.99,,2013-01-13 23:43:00,
2013-01-13 17:53:00,18.0,12.0,30.25,WNW,290,7.0,-999.0,78,-99.99,,,-99.99,,2013-01-13 23:53:00,
2013-01-13 18:02:00,18.0,12.0,30.25,WNW,290,7.0,-999.0,78,-99.99,,,-99.99,,2013-01-14 00:02:00,
2013-01-13 18:12:00,18.0,12.0,30.25,WNW,290,7.0,-999.0,78,-99.99,,,-99.99,,2013-01-14 00:12:00,
2013-01-13 18:22:00,18.0,10.0,30.27,WNW,290,6.0,-999.0,72,-99.99,,,-99.99,,2013-01-14 00:22:00,
2013-01-13 18:33:00,16.0,10.0,30.27,WNW,290,6.0,-999.0,78,-99.99,,,-99.99,,2013-01-14 00:33:00,
2013-01-13 18:43:00,16.0,10.0,30.28,WNW,290,6.0,-999.0,78,-99.99,,,-99.99,,2013-01-14 00:43:00,
2013-01-13 18:53:00,16.0,10.0,30.28,WNW,290,6.0,-999.0,78,-99.99,,,-99.99,,2013-01-14 00:53:00,
2013-01-13 19:03:00,16.0,10.0,30.28,WNW,290,6.0,-999.0,78,-99.99,,,-99.99,,2013-01-14 01:03:00,
2013-01-13 19:12:00,16.0,10.0,30.28,WNW,290,6.0,-999.0,78,-99.99,,,-99.99,,2013-01-14 01:12:00,
2013-01-13 19:22:00,16.0,10.0,30.28,WNW,290,5.0,-999.0,78,-99.99,,,-99.99,,2013-01-14 01:22:00,
2013-01-13 19:32:00,16.0,10.0,30.28,WNW,290,5.0,-999.0,78,-99.99,,,-99.99,,2013-01-14 01:32:00,
2013-01-13 19:42:00,16.0,10.0,30.29,WNW,290,5.0,-999.0,78,-99.99,,,-99.99,,2013-01-14 01:42:00,
2013-01-13 19:53:00,16.0,10.0,30.28,WNW,290,5.0,-999.0,78,-99.99,,,-99.99,,2013-01-14 01:53:00,
2013-01-13 20:02:00,16.0,10.0,30.28,WNW,290,5.0,-999.0,78,-99.99,,,-99.99,,2013-01-14 02:02:00,
2013-01-13 20:12:00,16.0,10.0,30.28,WNW,290,5.0,-999.0,78,-99.99,,,-99.99,,2013-01-14 02:12:00,
2013-01-13 20:22:00,14.0,10.0,30.30,North,0,0.0,-999.0,85,-99.99,,,-99.99,,2013-01-14 02:22:00,
2013-01-13 20:32:00,14.0,10.0,30.30,West,270,5.0,-999.0,85,-99.99,,,-99.99,,2013-01-14 02:32:00,
2013-01-13 20:43:00,14.0,10.0,30.30,WNW,290,6.0,-999.0,85,-99.99,,,-99.99,,2013-01-14 02:43:00,
2013-01-13 20:53:00,14.0,10.0,30.29,WNW,290,6.0,-999.0,85,-99.99,,,-99.99,,2013-01-14 02:53:00,
2013-01-13 21:02:00,14.0,10.0,30.29,WNW,290,6.0,-999.0,85,-99.99,,,-99.99,,2013-01-14 03:02:00,
2013-01-13 21:12:00,14.0,10.0,30.29,WNW,290,6.0,-999.0,85,-99.99,,,-99.99,,2013-01-14 03:12:00,
2013-01-13 21:22:00,14.0,10.0,30.29,WNW,290,5.0,-999.0,85,-99.99,,,-99.99,,2013-01-14 03:22:00,
2013-01-13 21:32:00,14.0,10.0,30.29,WNW,290,6.0,-999.0,85,-99.99,,,-99.99,,2013-01-14 03:32:00,
2013-01-13 21:43:00,14.0,10.0,30.29,WNW,290,7.0,-999.0,85,-99.99,,,-99.99,,2013-01-14 03:43:00,
2013-01-13 21:53:00,14.0,10.0,30.29,WNW,300,7.0,-999.0,85,-99.99,,,-99.99,,2013-01-14 03:53:00,
2013-01-13 22:02:00,14.0,10.0,30.29,WNW,300,7.0,-999.0,85,-99.99,,,-99.99,,2013-01-14 04:02:00,
2013-01-13 22:12:00,14.0,10.0,30.29,WNW,300,7.0,-999.0,85,-99.99,,,-99.99,,2013-01-14 04:12:00,
2013-01-13 22:22:00,14.0,10.0,30.29,WNW,290,6.0,-999.0,85,-99.99,,,-99.99,,2013-01-14 04:22:00,
2013-01-13 22:32:00,14.0,10.0,30.30,North,0,0.0,-999.0,85,-99.99,,,-99.99,,2013-01-14 04:32:00,
2013-01-13 22:42:00,14.0,10.0,30.31,West,280,3.0,-999.0,85,-99.99,,,-99.99,,2013-01-14 04:42:00,
2013-01-13 22:53:00,14.0,10.0,30.31,WNW,290,3.0,-999.0,85,-99.99,,,-99.99,,2013-01-14 04:53:00,
2013-01-13 23:03:00,14.0,10.0,30.31,WNW,290,3.0,-999.0,85,-99.99,,,-99.99,,2013-01-14 05:03:00,
2013-01-13 23:12:00,14.0,10.0,30.31,WNW,290,3.0,-999.0,85,-99.99,,,-99.99,,2013-01-14 05:12:00,
2013-01-13 23:22:00,14.0,10.0,30.34,North,0,0.0,-999.0,85,-99.99,,,-99.99,,2013-01-14 05:22:00,
2013-01-13 23:32:00,12.0,9.0,30.35,West,270,3.0,-999.0,85,-99.99,,,-99.99,,2013-01-14 05:32:00,
2013-01-13 23:43:00,12.0,9.0,30.35,West,260,5.0,-999.0,85,-99.99,,,-99.99,,2013-01-14 05:43:00,
2013-01-13 23:53:00,10.0,9.0,30.36,WSW,250,3.0,-999.0,92,-99.99,,,-99.99,,2013-01-14 05:53:00,